sensor_id;sensor_type;location;lat;lon;timestamp;P1;durP1;ratioP1;P2;durP2;ratioP2
60478;SDS011;46321;48.398;11.754;2022-07-05T00:01:38;4.20;;;3.63;;
60478;SDS011;46321;48.398;11.754;2022-07-05T00:04:03;6.05;;;4.22;;
60478;SDS011;46321;48.398;11.754;2022-07-05T00:06:28;8.50;;;4.68;;
60478;SDS011;46321;48.398;11.754;2022-07-05T00:08:53;6.65;;;4.13;;
60478;SDS011;46321;48.398;11.754;2022-07-05T00:11:19;5.60;;;3.77;;
60478;SDS011;46321;48.398;11.754;2022-07-05T00:13:44;4.30;;;3.78;;
60478;SDS011;46321;48.398;11.754;2022-07-05T00:16:09;5.15;;;3.85;;
60478;SDS011;46321;48.398;11.754;2022-07-05T00:18:35;5.70;;;3.65;;
60478;SDS011;46321;48.398;11.754;2022-07-05T00:21:00;6.65;;;4.05;;
60478;SDS011;46321;48.398;11.754;2022-07-05T00:23:25;6.53;;;3.67;;
60478;SDS011;46321;48.398;11.754;2022-07-05T00:25:50;6.15;;;3.67;;
60478;SDS011;46321;48.398;11.754;2022-07-05T00:28:17;4.90;;;3.67;;
60478;SDS011;46321;48.398;11.754;2022-07-05T00:30:42;3.80;;;3.30;;
60478;SDS011;46321;48.398;11.754;2022-07-05T00:33:08;6.50;;;3.67;;
60478;SDS011;46321;48.398;11.754;2022-07-05T00:35:33;4.43;;;3.27;;
60478;SDS011;46321;48.398;11.754;2022-07-05T00:37:58;4.70;;;3.53;;
60478;SDS011;46321;48.398;11.754;2022-07-05T00:40:23;6.80;;;3.10;;
60478;SDS011;46321;48.398;11.754;2022-07-05T00:42:49;6.82;;;3.30;;
60478;SDS011;46321;48.398;11.754;2022-07-05T00:45:14;4.40;;;3.58;;
60478;SDS011;46321;48.398;11.754;2022-07-05T00:47:40;4.95;;;3.90;;
60478;SDS011;46321;48.398;11.754;2022-07-05T00:50:05;4.67;;;3.40;;
60478;SDS011;46321;48.398;11.754;2022-07-05T00:52:31;5.25;;;3.40;;
60478;SDS011;46321;48.398;11.754;2022-07-05T00:54:57;4.18;;;3.45;;
60478;SDS011;46321;48.398;11.754;2022-07-05T00:57:22;5.95;;;3.22;;
60478;SDS011;46321;48.398;11.754;2022-07-05T00:59:48;5.10;;;3.38;;
60478;SDS011;46321;48.398;11.754;2022-07-05T01:02:14;4.10;;;3.50;;
60478;SDS011;46321;48.398;11.754;2022-07-05T01:04:40;6.50;;;3.35;;
60478;SDS011;46321;48.398;11.754;2022-07-05T01:07:05;4.43;;;3.45;;
60478;SDS011;46321;48.398;11.754;2022-07-05T01:09:30;6.13;;;3.53;;
60478;SDS011;46321;48.398;11.754;2022-07-05T01:11:58;5.40;;;3.50;;
60478;SDS011;46321;48.398;11.754;2022-07-05T01:14:24;4.72;;;3.45;;
60478;SDS011;46321;48.398;11.754;2022-07-05T01:16:50;5.53;;;3.38;;
60478;SDS011;46321;48.398;11.754;2022-07-05T01:19:16;5.40;;;3.53;;
60478;SDS011;46321;48.398;11.754;2022-07-05T01:21:46;6.15;;;3.33;;
60478;SDS011;46321;48.398;11.754;2022-07-05T01:24:13;4.22;;;3.35;;
60478;SDS011;46321;48.398;11.754;2022-07-05T01:26:42;5.13;;;3.10;;
60478;SDS011;46321;48.398;11.754;2022-07-05T01:29:10;4.20;;;2.75;;
60478;SDS011;46321;48.398;11.754;2022-07-05T01:31:36;4.32;;;2.97;;
60478;SDS011;46321;48.398;11.754;2022-07-05T01:34:02;7.35;;;3.15;;
60478;SDS011;46321;48.398;11.754;2022-07-05T01:36:27;3.47;;;3.08;;
60478;SDS011;46321;48.398;11.754;2022-07-05T01:38:53;5.25;;;2.90;;
60478;SDS011;46321;48.398;11.754;2022-07-05T01:41:18;6.13;;;2.70;;
60478;SDS011;46321;48.398;11.754;2022-07-05T01:43:43;5.17;;;3.10;;
60478;SDS011;46321;48.398;11.754;2022-07-05T01:46:09;3.75;;;2.83;;
60478;SDS011;46321;48.398;11.754;2022-07-05T01:48:37;3.17;;;2.88;;
60478;SDS011;46321;48.398;11.754;2022-07-05T01:51:05;3.63;;;3.05;;
60478;SDS011;46321;48.398;11.754;2022-07-05T01:53:34;5.38;;;3.10;;
60478;SDS011;46321;48.398;11.754;2022-07-05T01:56:03;3.83;;;2.90;;
60478;SDS011;46321;48.398;11.754;2022-07-05T01:58:29;3.20;;;2.83;;
60478;SDS011;46321;48.398;11.754;2022-07-05T02:00:55;4.03;;;3.22;;
60478;SDS011;46321;48.398;11.754;2022-07-05T02:03:22;5.00;;;3.20;;
60478;SDS011;46321;48.398;11.754;2022-07-05T02:05:48;4.28;;;3.15;;
60478;SDS011;46321;48.398;11.754;2022-07-05T02:08:15;6.28;;;3.03;;
60478;SDS011;46321;48.398;11.754;2022-07-05T02:10:42;6.88;;;3.08;;
60478;SDS011;46321;48.398;11.754;2022-07-05T02:13:08;6.93;;;3.50;;
60478;SDS011;46321;48.398;11.754;2022-07-05T02:15:34;3.50;;;2.80;;
60478;SDS011;46321;48.398;11.754;2022-07-05T02:18:01;6.28;;;3.35;;
60478;SDS011;46321;48.398;11.754;2022-07-05T02:20:27;5.63;;;2.53;;
60478;SDS011;46321;48.398;11.754;2022-07-05T02:22:53;3.28;;;2.70;;
60478;SDS011;46321;48.398;11.754;2022-07-05T02:25:19;5.95;;;2.90;;
60478;SDS011;46321;48.398;11.754;2022-07-05T02:27:44;3.40;;;2.92;;
60478;SDS011;46321;48.398;11.754;2022-07-05T02:30:10;4.60;;;2.90;;
60478;SDS011;46321;48.398;11.754;2022-07-05T02:32:36;3.53;;;3.08;;
60478;SDS011;46321;48.398;11.754;2022-07-05T02:35:02;4.20;;;3.15;;
60478;SDS011;46321;48.398;11.754;2022-07-05T02:37:28;5.10;;;3.20;;
60478;SDS011;46321;48.398;11.754;2022-07-05T02:39:54;5.47;;;3.08;;
60478;SDS011;46321;48.398;11.754;2022-07-05T02:42:19;4.93;;;2.95;;
60478;SDS011;46321;48.398;11.754;2022-07-05T02:44:44;3.95;;;2.92;;
60478;SDS011;46321;48.398;11.754;2022-07-05T02:47:10;5.65;;;2.92;;
60478;SDS011;46321;48.398;11.754;2022-07-05T02:49:35;3.97;;;2.60;;
60478;SDS011;46321;48.398;11.754;2022-07-05T02:52:00;3.40;;;2.90;;
60478;SDS011;46321;48.398;11.754;2022-07-05T02:54:26;4.25;;;3.10;;
60478;SDS011;46321;48.398;11.754;2022-07-05T02:56:51;5.45;;;2.83;;
60478;SDS011;46321;48.398;11.754;2022-07-05T02:59:16;4.37;;;2.73;;
60478;SDS011;46321;48.398;11.754;2022-07-05T03:01:41;4.00;;;3.20;;
60478;SDS011;46321;48.398;11.754;2022-07-05T03:04:07;5.33;;;3.10;;
60478;SDS011;46321;48.398;11.754;2022-07-05T03:06:34;5.78;;;2.72;;
60478;SDS011;46321;48.398;11.754;2022-07-05T03:09:00;6.00;;;2.80;;
60478;SDS011;46321;48.398;11.754;2022-07-05T03:11:25;3.90;;;2.67;;
60478;SDS011;46321;48.398;11.754;2022-07-05T03:13:51;5.13;;;3.03;;
60478;SDS011;46321;48.398;11.754;2022-07-05T03:16:16;3.40;;;2.90;;
60478;SDS011;46321;48.398;11.754;2022-07-05T03:18:41;3.70;;;2.80;;
60478;SDS011;46321;48.398;11.754;2022-07-05T03:21:07;5.55;;;2.92;;
60478;SDS011;46321;48.398;11.754;2022-07-05T03:23:32;5.28;;;3.15;;
60478;SDS011;46321;48.398;11.754;2022-07-05T03:25:57;3.10;;;2.70;;
60478;SDS011;46321;48.398;11.754;2022-07-05T03:28:23;4.00;;;2.53;;
60478;SDS011;46321;48.398;11.754;2022-07-05T03:30:48;4.55;;;2.60;;
60478;SDS011;46321;48.398;11.754;2022-07-05T03:33:13;4.50;;;2.70;;
60478;SDS011;46321;48.398;11.754;2022-07-05T03:35:39;2.90;;;2.60;;
60478;SDS011;46321;48.398;11.754;2022-07-05T03:38:04;6.45;;;2.78;;
60478;SDS011;46321;48.398;11.754;2022-07-05T03:40:30;4.28;;;2.58;;
60478;SDS011;46321;48.398;11.754;2022-07-05T03:42:55;6.18;;;2.50;;
60478;SDS011;46321;48.398;11.754;2022-07-05T03:45:20;5.95;;;4.00;;
60478;SDS011;46321;48.398;11.754;2022-07-05T03:47:46;8.40;;;5.70;;
60478;SDS011;46321;48.398;11.754;2022-07-05T03:50:11;13.02;;;6.55;;
60478;SDS011;46321;48.398;11.754;2022-07-05T03:52:36;4.65;;;3.22;;
60478;SDS011;46321;48.398;11.754;2022-07-05T03:55:02;17.25;;;3.17;;
60478;SDS011;46321;48.398;11.754;2022-07-05T03:57:27;5.72;;;2.85;;
60478;SDS011;46321;48.398;11.754;2022-07-05T03:59:53;4.63;;;2.75;;
60478;SDS011;46321;48.398;11.754;2022-07-05T04:02:18;2.90;;;2.60;;
60478;SDS011;46321;48.398;11.754;2022-07-05T04:04:43;3.03;;;2.47;;
60478;SDS011;46321;48.398;11.754;2022-07-05T04:07:09;4.72;;;2.60;;
60478;SDS011;46321;48.398;11.754;2022-07-05T04:09:34;5.20;;;3.05;;
60478;SDS011;46321;48.398;11.754;2022-07-05T04:11:59;7.10;;;2.87;;
60478;SDS011;46321;48.398;11.754;2022-07-05T04:14:25;4.88;;;2.75;;
60478;SDS011;46321;48.398;11.754;2022-07-05T04:16:50;5.28;;;2.65;;
60478;SDS011;46321;48.398;11.754;2022-07-05T04:19:15;2.85;;;2.30;;
60478;SDS011;46321;48.398;11.754;2022-07-05T04:21:41;5.28;;;2.67;;
60478;SDS011;46321;48.398;11.754;2022-07-05T04:24:07;3.92;;;2.42;;
60478;SDS011;46321;48.398;11.754;2022-07-05T04:26:32;9.85;;;2.80;;
60478;SDS011;46321;48.398;11.754;2022-07-05T04:28:58;4.95;;;3.00;;
60478;SDS011;46321;48.398;11.754;2022-07-05T04:31:23;7.20;;;2.42;;
60478;SDS011;46321;48.398;11.754;2022-07-05T04:33:48;3.13;;;2.50;;
60478;SDS011;46321;48.398;11.754;2022-07-05T04:36:13;7.40;;;3.27;;
60478;SDS011;46321;48.398;11.754;2022-07-05T04:38:39;5.87;;;2.80;;
60478;SDS011;46321;48.398;11.754;2022-07-05T04:41:04;5.05;;;2.60;;
60478;SDS011;46321;48.398;11.754;2022-07-05T04:43:29;5.13;;;3.00;;
60478;SDS011;46321;48.398;11.754;2022-07-05T04:45:55;3.72;;;2.85;;
60478;SDS011;46321;48.398;11.754;2022-07-05T04:48:20;3.47;;;2.70;;
60478;SDS011;46321;48.398;11.754;2022-07-05T04:50:45;4.50;;;2.53;;
60478;SDS011;46321;48.398;11.754;2022-07-05T04:53:10;4.53;;;2.72;;
60478;SDS011;46321;48.398;11.754;2022-07-05T04:55:36;4.78;;;2.80;;
60478;SDS011;46321;48.398;11.754;2022-07-05T04:58:01;3.53;;;2.67;;
60478;SDS011;46321;48.398;11.754;2022-07-05T05:00:27;4.97;;;2.60;;
60478;SDS011;46321;48.398;11.754;2022-07-05T05:02:52;4.93;;;2.50;;
60478;SDS011;46321;48.398;11.754;2022-07-05T05:05:17;4.73;;;3.30;;
60478;SDS011;46321;48.398;11.754;2022-07-05T05:07:44;3.05;;;2.53;;
60478;SDS011;46321;48.398;11.754;2022-07-05T05:10:09;5.22;;;2.60;;
60478;SDS011;46321;48.398;11.754;2022-07-05T05:12:35;6.20;;;2.80;;
60478;SDS011;46321;48.398;11.754;2022-07-05T05:15:01;5.10;;;2.78;;
60478;SDS011;46321;48.398;11.754;2022-07-05T05:17:34;5.18;;;3.08;;
60478;SDS011;46321;48.398;11.754;2022-07-05T05:20:01;5.43;;;3.28;;
60478;SDS011;46321;48.398;11.754;2022-07-05T05:22:27;4.15;;;2.65;;
60478;SDS011;46321;48.398;11.754;2022-07-05T05:24:52;3.90;;;2.70;;
60478;SDS011;46321;48.398;11.754;2022-07-05T05:27:18;8.17;;;2.73;;
60478;SDS011;46321;48.398;11.754;2022-07-05T05:29:43;6.53;;;2.83;;
60478;SDS011;46321;48.398;11.754;2022-07-05T05:32:08;5.07;;;3.10;;
60478;SDS011;46321;48.398;11.754;2022-07-05T05:34:33;4.00;;;2.60;;
60478;SDS011;46321;48.398;11.754;2022-07-05T05:36:59;6.80;;;2.70;;
60478;SDS011;46321;48.398;11.754;2022-07-05T05:39:24;3.83;;;2.47;;
60478;SDS011;46321;48.398;11.754;2022-07-05T05:41:49;4.32;;;2.60;;
60478;SDS011;46321;48.398;11.754;2022-07-05T05:44:14;7.13;;;2.60;;
60478;SDS011;46321;48.398;11.754;2022-07-05T05:46:40;5.32;;;3.05;;
60478;SDS011;46321;48.398;11.754;2022-07-05T05:49:05;7.97;;;3.33;;
60478;SDS011;46321;48.398;11.754;2022-07-05T05:51:30;5.27;;;3.03;;
60478;SDS011;46321;48.398;11.754;2022-07-05T05:53:55;6.07;;;3.40;;
60478;SDS011;46321;48.398;11.754;2022-07-05T05:56:21;6.68;;;3.10;;
60478;SDS011;46321;48.398;11.754;2022-07-05T05:58:46;8.73;;;3.60;;
60478;SDS011;46321;48.398;11.754;2022-07-05T06:01:11;4.38;;;3.22;;
60478;SDS011;46321;48.398;11.754;2022-07-05T06:03:37;4.63;;;3.17;;
60478;SDS011;46321;48.398;11.754;2022-07-05T06:06:02;4.72;;;3.17;;
60478;SDS011;46321;48.398;11.754;2022-07-05T06:08:27;6.68;;;3.45;;
60478;SDS011;46321;48.398;11.754;2022-07-05T06:10:53;5.90;;;3.20;;
60478;SDS011;46321;48.398;11.754;2022-07-05T06:13:18;5.05;;;2.95;;
60478;SDS011;46321;48.398;11.754;2022-07-05T06:15:43;5.10;;;3.77;;
60478;SDS011;46321;48.398;11.754;2022-07-05T06:18:10;7.03;;;3.50;;
60478;SDS011;46321;48.398;11.754;2022-07-05T06:20:37;5.22;;;3.63;;
60478;SDS011;46321;48.398;11.754;2022-07-05T06:23:03;4.65;;;3.00;;
60478;SDS011;46321;48.398;11.754;2022-07-05T06:25:30;4.88;;;3.35;;
60478;SDS011;46321;48.398;11.754;2022-07-05T06:27:57;5.95;;;3.67;;
60478;SDS011;46321;48.398;11.754;2022-07-05T06:30:24;4.18;;;3.45;;
60478;SDS011;46321;48.398;11.754;2022-07-05T06:32:51;6.93;;;3.15;;
60478;SDS011;46321;48.398;11.754;2022-07-05T06:35:17;3.50;;;3.03;;
60478;SDS011;46321;48.398;11.754;2022-07-05T06:37:50;5.70;;;4.68;;
60478;SDS011;46321;48.398;11.754;2022-07-05T06:42:53;6.05;;;3.60;;
60478;SDS011;46321;48.398;11.754;2022-07-05T06:45:19;4.43;;;3.10;;
60478;SDS011;46321;48.398;11.754;2022-07-05T06:47:53;4.35;;;3.28;;
60478;SDS011;46321;48.398;11.754;2022-07-05T06:50:39;5.53;;;3.37;;
60478;SDS011;46321;48.398;11.754;2022-07-05T06:53:07;4.20;;;2.97;;
60478;SDS011;46321;48.398;11.754;2022-07-05T06:55:33;5.07;;;2.92;;
60478;SDS011;46321;48.398;11.754;2022-07-05T06:58:03;6.43;;;3.20;;
60478;SDS011;46321;48.398;11.754;2022-07-05T07:00:30;5.18;;;3.10;;
60478;SDS011;46321;48.398;11.754;2022-07-05T07:02:56;4.20;;;3.13;;
60478;SDS011;46321;48.398;11.754;2022-07-05T07:05:22;6.32;;;3.25;;
60478;SDS011;46321;48.398;11.754;2022-07-05T07:07:47;4.93;;;3.08;;
60478;SDS011;46321;48.398;11.754;2022-07-05T07:10:31;4.47;;;2.63;;
60478;SDS011;46321;48.398;11.754;2022-07-05T07:12:57;3.63;;;2.70;;
60478;SDS011;46321;48.398;11.754;2022-07-05T07:15:22;3.75;;;2.95;;
60478;SDS011;46321;48.398;11.754;2022-07-05T07:17:48;4.07;;;2.90;;
60478;SDS011;46321;48.398;11.754;2022-07-05T07:20:13;3.63;;;2.97;;
60478;SDS011;46321;48.398;11.754;2022-07-05T07:22:38;9.30;;;5.77;;
60478;SDS011;46321;48.398;11.754;2022-07-05T07:25:04;6.05;;;3.03;;
60478;SDS011;46321;48.398;11.754;2022-07-05T07:27:44;3.33;;;2.53;;
60478;SDS011;46321;48.398;11.754;2022-07-05T07:30:11;4.65;;;3.17;;
60478;SDS011;46321;48.398;11.754;2022-07-05T07:32:38;4.05;;;2.63;;
60478;SDS011;46321;48.398;11.754;2022-07-05T07:35:03;4.25;;;3.20;;
60478;SDS011;46321;48.398;11.754;2022-07-05T07:37:29;4.10;;;2.90;;
60478;SDS011;46321;48.398;11.754;2022-07-05T07:39:55;3.97;;;3.30;;
60478;SDS011;46321;48.398;11.754;2022-07-05T07:42:20;4.43;;;2.50;;
60478;SDS011;46321;48.398;11.754;2022-07-05T07:44:45;3.83;;;3.10;;
60478;SDS011;46321;48.398;11.754;2022-07-05T07:47:10;6.07;;;2.93;;
60478;SDS011;46321;48.398;11.754;2022-07-05T07:49:36;4.40;;;2.87;;
60478;SDS011;46321;48.398;11.754;2022-07-05T07:52:02;4.28;;;3.08;;
60478;SDS011;46321;48.398;11.754;2022-07-05T07:54:28;3.00;;;2.70;;
60478;SDS011;46321;48.398;11.754;2022-07-05T07:56:53;3.13;;;2.60;;
60478;SDS011;46321;48.398;11.754;2022-07-05T07:59:18;3.63;;;2.87;;
60478;SDS011;46321;48.398;11.754;2022-07-05T08:01:44;3.50;;;2.90;;
60478;SDS011;46321;48.398;11.754;2022-07-05T08:04:09;3.92;;;3.00;;
60478;SDS011;46321;48.398;11.754;2022-07-05T08:06:34;3.50;;;2.90;;
60478;SDS011;46321;48.398;11.754;2022-07-05T08:09:00;4.80;;;2.70;;
60478;SDS011;46321;48.398;11.754;2022-07-05T08:11:25;4.20;;;3.13;;
60478;SDS011;46321;48.398;11.754;2022-07-05T08:13:50;4.18;;;2.88;;
60478;SDS011;46321;48.398;11.754;2022-07-05T08:16:16;3.03;;;2.83;;
60478;SDS011;46321;48.398;11.754;2022-07-05T08:18:41;3.17;;;2.60;;
60478;SDS011;46321;48.398;11.754;2022-07-05T08:21:25;2.85;;;2.58;;
60478;SDS011;46321;48.398;11.754;2022-07-05T08:24:00;5.78;;;2.95;;
60478;SDS011;46321;48.398;11.754;2022-07-05T08:26:27;3.33;;;2.55;;
60478;SDS011;46321;48.398;11.754;2022-07-05T08:28:53;2.70;;;2.50;;
60478;SDS011;46321;48.398;11.754;2022-07-05T08:31:19;5.30;;;2.83;;
60478;SDS011;46321;48.398;11.754;2022-07-05T08:33:45;3.13;;;2.90;;
60478;SDS011;46321;48.398;11.754;2022-07-05T08:36:10;2.97;;;2.28;;
60478;SDS011;46321;48.398;11.754;2022-07-05T08:38:36;2.93;;;2.63;;
60478;SDS011;46321;48.398;11.754;2022-07-05T08:41:01;9.77;;;2.88;;
60478;SDS011;46321;48.398;11.754;2022-07-05T08:43:27;2.85;;;2.50;;
60478;SDS011;46321;48.398;11.754;2022-07-05T08:45:53;2.70;;;2.50;;
60478;SDS011;46321;48.398;11.754;2022-07-05T08:48:21;2.78;;;2.58;;
60478;SDS011;46321;48.398;11.754;2022-07-05T08:50:49;2.78;;;2.58;;
60478;SDS011;46321;48.398;11.754;2022-07-05T08:53:18;3.28;;;2.30;;
60478;SDS011;46321;48.398;11.754;2022-07-05T08:55:44;2.78;;;2.42;;
60478;SDS011;46321;48.398;11.754;2022-07-05T08:58:10;6.13;;;4.90;;
60478;SDS011;46321;48.398;11.754;2022-07-05T09:00:36;4.03;;;3.10;;
60478;SDS011;46321;48.398;11.754;2022-07-05T09:03:03;2.50;;;2.30;;
60478;SDS011;46321;48.398;11.754;2022-07-05T09:05:28;3.73;;;2.60;;
60478;SDS011;46321;48.398;11.754;2022-07-05T09:07:58;2.70;;;2.00;;
60478;SDS011;46321;48.398;11.754;2022-07-05T09:10:30;2.30;;;2.00;;
60478;SDS011;46321;48.398;11.754;2022-07-05T09:12:57;2.25;;;1.90;;
60478;SDS011;46321;48.398;11.754;2022-07-05T09:15:23;6.00;;;2.00;;
60478;SDS011;46321;48.398;11.754;2022-07-05T09:17:49;2.47;;;1.95;;
60478;SDS011;46321;48.398;11.754;2022-07-05T09:20:15;3.85;;;1.48;;
60478;SDS011;46321;48.398;11.754;2022-07-05T09:25:13;1.90;;;1.60;;
60478;SDS011;46321;48.398;11.754;2022-07-05T09:27:53;2.92;;;1.58;;
60478;SDS011;46321;48.398;11.754;2022-07-05T09:35:29;5.93;;;3.75;;
60478;SDS011;46321;48.398;11.754;2022-07-05T09:37:58;5.68;;;2.50;;
60478;SDS011;46321;48.398;11.754;2022-07-05T09:40:24;3.67;;;1.88;;
60478;SDS011;46321;48.398;11.754;2022-07-05T09:42:49;1.93;;;1.60;;
60478;SDS011;46321;48.398;11.754;2022-07-05T09:45:21;2.22;;;1.75;;
60478;SDS011;46321;48.398;11.754;2022-07-05T09:47:48;1.52;;;1.30;;
60478;SDS011;46321;48.398;11.754;2022-07-05T09:50:13;1.35;;;1.10;;
60478;SDS011;46321;48.398;11.754;2022-07-05T09:52:40;1.63;;;1.20;;
60478;SDS011;46321;48.398;11.754;2022-07-05T09:55:10;2.17;;;1.27;;
60478;SDS011;46321;48.398;11.754;2022-07-05T09:57:37;1.73;;;1.42;;
60478;SDS011;46321;48.398;11.754;2022-07-05T10:00:07;2.22;;;1.50;;
60478;SDS011;46321;48.398;11.754;2022-07-05T10:02:45;3.05;;;1.27;;
60478;SDS011;46321;48.398;11.754;2022-07-05T10:05:16;1.33;;;1.17;;
60478;SDS011;46321;48.398;11.754;2022-07-05T10:07:48;1.52;;;1.10;;
60478;SDS011;46321;48.398;11.754;2022-07-05T10:10:16;1.27;;;1.05;;
60478;SDS011;46321;48.398;11.754;2022-07-05T10:12:43;1.50;;;1.00;;
60478;SDS011;46321;48.398;11.754;2022-07-05T10:15:11;2.50;;;0.98;;
60478;SDS011;46321;48.398;11.754;2022-07-05T10:17:42;5.30;;;1.30;;
60478;SDS011;46321;48.398;11.754;2022-07-05T10:20:39;1.73;;;1.27;;
60478;SDS011;46321;48.398;11.754;2022-07-05T10:23:11;1.10;;;0.98;;
60478;SDS011;46321;48.398;11.754;2022-07-05T10:25:42;4.63;;;1.27;;
60478;SDS011;46321;48.398;11.754;2022-07-05T10:28:12;1.15;;;1.05;;
60478;SDS011;46321;48.398;11.754;2022-07-05T10:30:38;5.35;;;1.52;;
60478;SDS011;46321;48.398;11.754;2022-07-05T10:33:05;2.40;;;2.13;;
60478;SDS011;46321;48.398;11.754;2022-07-05T10:35:32;1.33;;;1.17;;
60478;SDS011;46321;48.398;11.754;2022-07-05T10:37:59;1.70;;;1.08;;
60478;SDS011;46321;48.398;11.754;2022-07-05T10:40:26;1.45;;;1.02;;
60478;SDS011;46321;48.398;11.754;2022-07-05T10:42:56;2.80;;;1.20;;
60478;SDS011;46321;48.398;11.754;2022-07-05T10:48:11;2.78;;;1.23;;
60478;SDS011;46321;48.398;11.754;2022-07-05T10:50:56;2.63;;;1.30;;
60478;SDS011;46321;48.398;11.754;2022-07-05T10:53:27;1.30;;;1.20;;
60478;SDS011;46321;48.398;11.754;2022-07-05T10:56:14;2.92;;;1.63;;
60478;SDS011;46321;48.398;11.754;2022-07-05T10:58:47;2.58;;;1.60;;
60478;SDS011;46321;48.398;11.754;2022-07-05T11:06:28;1.30;;;1.20;;
60478;SDS011;46321;48.398;11.754;2022-07-05T11:11:24;2.25;;;1.10;;
60478;SDS011;46321;48.398;11.754;2022-07-05T11:13:50;1.55;;;1.20;;
60478;SDS011;46321;48.398;11.754;2022-07-05T11:16:34;2.60;;;1.30;;
60478;SDS011;46321;48.398;11.754;2022-07-05T11:19:10;1.75;;;1.50;;
60478;SDS011;46321;48.398;11.754;2022-07-05T11:21:59;2.13;;;1.90;;
60478;SDS011;46321;48.398;11.754;2022-07-05T11:24:27;3.38;;;2.60;;
60478;SDS011;46321;48.398;11.754;2022-07-05T11:27:02;1.70;;;1.30;;
60478;SDS011;46321;48.398;11.754;2022-07-05T11:32:10;3.30;;;1.25;;
60478;SDS011;46321;48.398;11.754;2022-07-05T11:34:41;2.75;;;1.65;;
60478;SDS011;46321;48.398;11.754;2022-07-05T11:39:41;2.67;;;1.60;;
60478;SDS011;46321;48.398;11.754;2022-07-05T11:42:10;3.42;;;1.50;;
60478;SDS011;46321;48.398;11.754;2022-07-05T11:44:36;2.45;;;1.80;;
60478;SDS011;46321;48.398;11.754;2022-07-05T11:47:05;2.08;;;1.33;;
60478;SDS011;46321;48.398;11.754;2022-07-05T11:49:31;2.17;;;1.60;;
60478;SDS011;46321;48.398;11.754;2022-07-05T11:51:56;3.73;;;1.80;;
60478;SDS011;46321;48.398;11.754;2022-07-05T11:54:24;1.95;;;1.60;;
60478;SDS011;46321;48.398;11.754;2022-07-05T11:56:50;2.60;;;1.50;;
60478;SDS011;46321;48.398;11.754;2022-07-05T11:59:17;3.25;;;1.60;;
60478;SDS011;46321;48.398;11.754;2022-07-05T12:01:43;2.72;;;1.55;;
60478;SDS011;46321;48.398;11.754;2022-07-05T12:04:09;1.95;;;1.40;;
60478;SDS011;46321;48.398;11.754;2022-07-05T12:06:40;3.30;;;1.50;;
60478;SDS011;46321;48.398;11.754;2022-07-05T12:09:06;1.60;;;1.30;;
60478;SDS011;46321;48.398;11.754;2022-07-05T12:11:31;3.00;;;1.60;;
60478;SDS011;46321;48.398;11.754;2022-07-05T12:14:19;2.63;;;2.00;;
60478;SDS011;46321;48.398;11.754;2022-07-05T12:16:45;3.17;;;2.50;;
60478;SDS011;46321;48.398;11.754;2022-07-05T12:19:11;2.33;;;1.70;;
60478;SDS011;46321;48.398;11.754;2022-07-05T12:21:36;2.75;;;1.50;;
60478;SDS011;46321;48.398;11.754;2022-07-05T12:24:01;2.47;;;1.50;;
60478;SDS011;46321;48.398;11.754;2022-07-05T12:26:27;3.95;;;1.60;;
60478;SDS011;46321;48.398;11.754;2022-07-05T12:28:53;3.10;;;1.60;;
60478;SDS011;46321;48.398;11.754;2022-07-05T12:31:19;1.88;;;1.63;;
60478;SDS011;46321;48.398;11.754;2022-07-05T12:33:48;2.28;;;1.60;;
60478;SDS011;46321;48.398;11.754;2022-07-05T12:36:16;2.17;;;1.70;;
60478;SDS011;46321;48.398;11.754;2022-07-05T12:38:43;3.38;;;1.35;;
60478;SDS011;46321;48.398;11.754;2022-07-05T12:41:09;1.77;;;1.30;;
60478;SDS011;46321;48.398;11.754;2022-07-05T12:43:47;3.00;;;1.33;;
60478;SDS011;46321;48.398;11.754;2022-07-05T12:46:17;1.93;;;1.70;;
60478;SDS011;46321;48.398;11.754;2022-07-05T12:48:43;2.17;;;1.60;;
60478;SDS011;46321;48.398;11.754;2022-07-05T12:51:09;1.80;;;1.50;;
60478;SDS011;46321;48.398;11.754;2022-07-05T12:53:43;4.25;;;1.63;;
60478;SDS011;46321;48.398;11.754;2022-07-05T12:56:28;1.42;;;1.20;;
60478;SDS011;46321;48.398;11.754;2022-07-05T12:59:12;1.38;;;1.27;;
60478;SDS011;46321;48.398;11.754;2022-07-05T13:01:41;1.52;;;1.30;;
60478;SDS011;46321;48.398;11.754;2022-07-05T13:04:12;1.40;;;1.30;;
60478;SDS011;46321;48.398;11.754;2022-07-05T13:06:51;5.68;;;1.40;;
60478;SDS011;46321;48.398;11.754;2022-07-05T13:14:39;2.95;;;1.25;;
60478;SDS011;46321;48.398;11.754;2022-07-05T13:17:09;1.40;;;1.20;;
60478;SDS011;46321;48.398;11.754;2022-07-05T13:19:35;2.20;;;1.20;;
60478;SDS011;46321;48.398;11.754;2022-07-05T13:22:01;1.70;;;1.10;;
60478;SDS011;46321;48.398;11.754;2022-07-05T13:24:27;4.22;;;1.00;;
60478;SDS011;46321;48.398;11.754;2022-07-05T13:26:53;5.78;;;2.15;;
60478;SDS011;46321;48.398;11.754;2022-07-05T13:29:19;1.73;;;1.60;;
60478;SDS011;46321;48.398;11.754;2022-07-05T13:31:45;2.53;;;1.17;;
60478;SDS011;46321;48.398;11.754;2022-07-05T13:34:10;1.73;;;1.10;;
60478;SDS011;46321;48.398;11.754;2022-07-05T13:36:35;1.13;;;0.97;;
60478;SDS011;46321;48.398;11.754;2022-07-05T13:39:00;1.40;;;1.00;;
60478;SDS011;46321;48.398;11.754;2022-07-05T13:41:26;2.20;;;0.87;;
60478;SDS011;46321;48.398;11.754;2022-07-05T13:43:51;1.52;;;1.23;;
60478;SDS011;46321;48.398;11.754;2022-07-05T13:46:16;3.67;;;1.10;;
60478;SDS011;46321;48.398;11.754;2022-07-05T13:48:42;1.20;;;0.90;;
60478;SDS011;46321;48.398;11.754;2022-07-05T13:51:07;2.10;;;1.05;;
60478;SDS011;46321;48.398;11.754;2022-07-05T13:53:32;3.75;;;0.98;;
60478;SDS011;46321;48.398;11.754;2022-07-05T13:55:58;3.40;;;1.27;;
60478;SDS011;46321;48.398;11.754;2022-07-05T13:58:23;1.48;;;1.00;;
60478;SDS011;46321;48.398;11.754;2022-07-05T14:00:49;2.70;;;1.05;;
60478;SDS011;46321;48.398;11.754;2022-07-05T14:03:15;1.38;;;1.10;;
60478;SDS011;46321;48.398;11.754;2022-07-05T14:05:43;1.33;;;0.90;;
60478;SDS011;46321;48.398;11.754;2022-07-05T14:08:11;0.90;;;0.90;;
60478;SDS011;46321;48.398;11.754;2022-07-05T14:10:38;1.33;;;1.00;;
60478;SDS011;46321;48.398;11.754;2022-07-05T14:13:04;1.98;;;0.70;;
60478;SDS011;46321;48.398;11.754;2022-07-05T14:15:29;2.40;;;0.85;;
60478;SDS011;46321;48.398;11.754;2022-07-05T14:17:54;2.22;;;0.95;;
60478;SDS011;46321;48.398;11.754;2022-07-05T14:20:20;2.42;;;1.15;;
60478;SDS011;46321;48.398;11.754;2022-07-05T14:22:45;1.80;;;1.00;;
60478;SDS011;46321;48.398;11.754;2022-07-05T14:25:11;2.40;;;1.00;;
60478;SDS011;46321;48.398;11.754;2022-07-05T14:27:36;1.40;;;0.90;;
60478;SDS011;46321;48.398;11.754;2022-07-05T14:30:02;1.95;;;1.10;;
60478;SDS011;46321;48.398;11.754;2022-07-05T14:32:29;1.27;;;1.00;;
60478;SDS011;46321;48.398;11.754;2022-07-05T14:34:54;1.33;;;1.10;;
60478;SDS011;46321;48.398;11.754;2022-07-05T14:37:19;1.90;;;1.07;;
60478;SDS011;46321;48.398;11.754;2022-07-05T14:39:46;2.08;;;1.25;;
60478;SDS011;46321;48.398;11.754;2022-07-05T14:42:11;1.20;;;1.10;;
60478;SDS011;46321;48.398;11.754;2022-07-05T14:44:36;1.53;;;0.97;;
60478;SDS011;46321;48.398;11.754;2022-07-05T14:47:01;1.20;;;0.90;;
60478;SDS011;46321;48.398;11.754;2022-07-05T14:49:27;7.30;;;1.10;;
60478;SDS011;46321;48.398;11.754;2022-07-05T14:51:52;1.75;;;1.17;;
60478;SDS011;46321;48.398;11.754;2022-07-05T14:54:17;1.87;;;1.03;;
60478;SDS011;46321;48.398;11.754;2022-07-05T14:56:43;2.60;;;1.33;;
60478;SDS011;46321;48.398;11.754;2022-07-05T14:59:08;2.53;;;1.20;;
60478;SDS011;46321;48.398;11.754;2022-07-05T15:01:33;1.67;;;1.20;;
60478;SDS011;46321;48.398;11.754;2022-07-05T15:03:58;10.47;;;5.30;;